sensor_id;sensor_type;location;lat;lon;timestamp;P1;durP1;ratioP1;P2;durP2;ratioP2
7375;SDS011;3728;42.266;24.944;2022-12-10T00:01:44;41.33;;;22.67;;
7375;SDS011;3728;42.266;24.944;2022-12-10T00:04:12;47.27;;;19.63;;
7375;SDS011;3728;42.266;24.944;2022-12-10T00:06:40;40.80;;;20.63;;
7375;SDS011;3728;42.266;24.944;2022-12-10T00:09:10;61.73;;;20.80;;
7375;SDS011;3728;42.266;24.944;2022-12-10T00:11:43;44.87;;;20.03;;
7375;SDS011;3728;42.266;24.944;2022-12-10T00:14:11;47.20;;;18.97;;
7375;SDS011;3728;42.266;24.944;2022-12-10T00:16:40;46.27;;;20.93;;
7375;SDS011;3728;42.266;24.944;2022-12-10T00:19:08;49.90;;;19.37;;
7375;SDS011;3728;42.266;24.944;2022-12-10T00:21:36;62.90;;;20.33;;
7375;SDS011;3728;42.266;24.944;2022-12-10T00:24:04;50.17;;;20.37;;
7375;SDS011;3728;42.266;24.944;2022-12-10T00:26:35;68.10;;;21.23;;
7375;SDS011;3728;42.266;24.944;2022-12-10T00:29:05;62.40;;;21.17;;
7375;SDS011;3728;42.266;24.944;2022-12-10T00:31:36;66.63;;;20.63;;
7375;SDS011;3728;42.266;24.944;2022-12-10T00:34:06;58.53;;;21.77;;
7375;SDS011;3728;42.266;24.944;2022-12-10T00:36:43;50.97;;;20.90;;
7375;SDS011;3728;42.266;24.944;2022-12-10T00:39:14;76.37;;;23.47;;
7375;SDS011;3728;42.266;24.944;2022-12-10T00:41:45;53.60;;;19.93;;
7375;SDS011;3728;42.266;24.944;2022-12-10T00:44:13;47.10;;;20.43;;
7375;SDS011;3728;42.266;24.944;2022-12-10T00:46:42;68.60;;;26.37;;
7375;SDS011;3728;42.266;24.944;2022-12-10T00:49:09;75.93;;;21.00;;
7375;SDS011;3728;42.266;24.944;2022-12-10T00:51:38;89.30;;;22.87;;
7375;SDS011;3728;42.266;24.944;2022-12-10T00:54:06;44.53;;;19.23;;
7375;SDS011;3728;42.266;24.944;2022-12-10T00:56:34;52.57;;;20.30;;
7375;SDS011;3728;42.266;24.944;2022-12-10T00:59:02;53.33;;;19.97;;
7375;SDS011;3728;42.266;24.944;2022-12-10T01:01:32;60.53;;;18.77;;
7375;SDS011;3728;42.266;24.944;2022-12-10T01:04:04;57.53;;;17.87;;
7375;SDS011;3728;42.266;24.944;2022-12-10T01:09:16;73.07;;;20.13;;
7375;SDS011;3728;42.266;24.944;2022-12-10T01:11:52;45.83;;;18.83;;
7375;SDS011;3728;42.266;24.944;2022-12-10T01:14:31;86.57;;;20.03;;
7375;SDS011;3728;42.266;24.944;2022-12-10T01:17:01;72.63;;;18.63;;
7375;SDS011;3728;42.266;24.944;2022-12-10T01:19:31;89.40;;;22.93;;
7375;SDS011;3728;42.266;24.944;2022-12-10T01:22:00;73.17;;;20.13;;
7375;SDS011;3728;42.266;24.944;2022-12-10T01:24:28;86.23;;;18.97;;
7375;SDS011;3728;42.266;24.944;2022-12-10T01:26:56;70.90;;;23.57;;
7375;SDS011;3728;42.266;24.944;2022-12-10T01:29:26;67.17;;;19.87;;
7375;SDS011;3728;42.266;24.944;2022-12-10T01:31:54;92.63;;;21.03;;
7375;SDS011;3728;42.266;24.944;2022-12-10T01:34:23;91.17;;;22.10;;
7375;SDS011;3728;42.266;24.944;2022-12-10T01:36:55;86.67;;;20.70;;
7375;SDS011;3728;42.266;24.944;2022-12-10T01:39:24;115.90;;;22.10;;
7375;SDS011;3728;42.266;24.944;2022-12-10T01:41:52;72.73;;;20.13;;
7375;SDS011;3728;42.266;24.944;2022-12-10T01:46:51;84.03;;;25.20;;
7375;SDS011;3728;42.266;24.944;2022-12-10T01:49:24;80.07;;;21.30;;
7375;SDS011;3728;42.266;24.944;2022-12-10T01:52:05;95.53;;;19.93;;
7375;SDS011;3728;42.266;24.944;2022-12-10T01:54:41;62.43;;;19.50;;
7375;SDS011;3728;42.266;24.944;2022-12-10T01:57:29;115.80;;;24.23;;
7375;SDS011;3728;42.266;24.944;2022-12-10T01:59:58;101.90;;;29.50;;
7375;SDS011;3728;42.266;24.944;2022-12-10T02:02:42;74.97;;;22.20;;
7375;SDS011;3728;42.266;24.944;2022-12-10T02:05:40;71.70;;;18.90;;
7375;SDS011;3728;42.266;24.944;2022-12-10T02:08:20;70.13;;;18.60;;
7375;SDS011;3728;42.266;24.944;2022-12-10T02:11:28;73.47;;;19.53;;
7375;SDS011;3728;42.266;24.944;2022-12-10T02:14:07;86.13;;;20.07;;
7375;SDS011;3728;42.266;24.944;2022-12-10T02:16:41;92.53;;;19.37;;
7375;SDS011;3728;42.266;24.944;2022-12-10T02:19:35;92.03;;;18.37;;
7375;SDS011;3728;42.266;24.944;2022-12-10T02:22:16;58.20;;;17.60;;
7375;SDS011;3728;42.266;24.944;2022-12-10T02:24:45;80.60;;;19.33;;
7375;SDS011;3728;42.266;24.944;2022-12-10T02:30:28;69.83;;;17.13;;
7375;SDS011;3728;42.266;24.944;2022-12-10T02:32:59;89.00;;;21.40;;
7375;SDS011;3728;42.266;24.944;2022-12-10T02:35:31;55.13;;;19.40;;
7375;SDS011;3728;42.266;24.944;2022-12-10T02:38:19;58.03;;;18.33;;
7375;SDS011;3728;42.266;24.944;2022-12-10T02:41:01;66.03;;;17.13;;
7375;SDS011;3728;42.266;24.944;2022-12-10T02:43:35;85.73;;;23.70;;
7375;SDS011;3728;42.266;24.944;2022-12-10T02:46:03;55.73;;;17.33;;
7375;SDS011;3728;42.266;24.944;2022-12-10T02:48:33;75.50;;;18.80;;
7375;SDS011;3728;42.266;24.944;2022-12-10T02:51:02;67.03;;;19.47;;
7375;SDS011;3728;42.266;24.944;2022-12-10T02:53:30;56.57;;;17.03;;
7375;SDS011;3728;42.266;24.944;2022-12-10T03:08:06;58.47;;;16.80;;
7375;SDS011;3728;42.266;24.944;2022-12-10T03:10:41;33.83;;;16.17;;
7375;SDS011;3728;42.266;24.944;2022-12-10T03:13:29;36.23;;;15.93;;
7375;SDS011;3728;42.266;24.944;2022-12-10T03:16:22;41.13;;;17.60;;
7375;SDS011;3728;42.266;24.944;2022-12-10T03:18:53;37.33;;;16.77;;
7375;SDS011;3728;42.266;24.944;2022-12-10T03:21:25;31.90;;;16.23;;
7375;SDS011;3728;42.266;24.944;2022-12-10T03:23:54;43.17;;;17.77;;
7375;SDS011;3728;42.266;24.944;2022-12-10T03:26:22;32.60;;;16.97;;
7375;SDS011;3728;42.266;24.944;2022-12-10T03:28:52;34.53;;;17.67;;
7375;SDS011;3728;42.266;24.944;2022-12-10T03:31:35;46.37;;;17.50;;
7375;SDS011;3728;42.266;24.944;2022-12-10T03:34:06;36.60;;;20.87;;
7375;SDS011;3728;42.266;24.944;2022-12-10T03:36:37;31.90;;;18.00;;
7375;SDS011;3728;42.266;24.944;2022-12-10T03:39:06;40.27;;;18.27;;
7375;SDS011;3728;42.266;24.944;2022-12-10T03:41:34;39.40;;;17.50;;
7375;SDS011;3728;42.266;24.944;2022-12-10T03:44:02;41.83;;;17.80;;
7375;SDS011;3728;42.266;24.944;2022-12-10T03:46:30;37.73;;;18.43;;
7375;SDS011;3728;42.266;24.944;2022-12-10T03:48:59;28.00;;;16.97;;
7375;SDS011;3728;42.266;24.944;2022-12-10T03:51:28;40.60;;;16.87;;
7375;SDS011;3728;42.266;24.944;2022-12-10T03:53:56;34.47;;;19.07;;
7375;SDS011;3728;42.266;24.944;2022-12-10T03:56:23;47.23;;;19.13;;
7375;SDS011;3728;42.266;24.944;2022-12-10T03:58:51;36.53;;;16.63;;
7375;SDS011;3728;42.266;24.944;2022-12-10T04:01:18;42.10;;;16.93;;
7375;SDS011;3728;42.266;24.944;2022-12-10T04:03:47;31.33;;;17.70;;
7375;SDS011;3728;42.266;24.944;2022-12-10T04:06:16;33.67;;;16.27;;
7375;SDS011;3728;42.266;24.944;2022-12-10T04:08:46;30.63;;;16.90;;
7375;SDS011;3728;42.266;24.944;2022-12-10T04:11:22;26.90;;;17.27;;
7375;SDS011;3728;42.266;24.944;2022-12-10T04:13:50;31.20;;;18.50;;
7375;SDS011;3728;42.266;24.944;2022-12-10T04:16:37;49.33;;;14.93;;
7375;SDS011;3728;42.266;24.944;2022-12-10T04:19:06;34.20;;;15.60;;
7375;SDS011;3728;42.266;24.944;2022-12-10T04:21:37;59.63;;;16.37;;
7375;SDS011;3728;42.266;24.944;2022-12-10T04:24:27;41.80;;;16.73;;
7375;SDS011;3728;42.266;24.944;2022-12-10T04:27:23;63.03;;;18.57;;
7375;SDS011;3728;42.266;24.944;2022-12-10T04:29:51;52.77;;;17.33;;
7375;SDS011;3728;42.266;24.944;2022-12-10T04:32:20;59.43;;;16.93;;
7375;SDS011;3728;42.266;24.944;2022-12-10T04:34:49;84.03;;;20.83;;
7375;SDS011;3728;42.266;24.944;2022-12-10T04:37:17;42.23;;;17.03;;
7375;SDS011;3728;42.266;24.944;2022-12-10T04:39:46;90.53;;;21.43;;
7375;SDS011;3728;42.266;24.944;2022-12-10T04:42:16;143.53;;;40.03;;
7375;SDS011;3728;42.266;24.944;2022-12-10T04:44:45;92.87;;;36.07;;
7375;SDS011;3728;42.266;24.944;2022-12-10T04:47:13;76.53;;;25.60;;
7375;SDS011;3728;42.266;24.944;2022-12-10T04:49:41;65.47;;;21.40;;
7375;SDS011;3728;42.266;24.944;2022-12-10T04:52:10;48.03;;;18.40;;
7375;SDS011;3728;42.266;24.944;2022-12-10T04:54:41;76.00;;;18.23;;
7375;SDS011;3728;42.266;24.944;2022-12-10T04:57:10;35.57;;;16.63;;
7375;SDS011;3728;42.266;24.944;2022-12-10T04:59:38;47.07;;;18.70;;
7375;SDS011;3728;42.266;24.944;2022-12-10T05:02:06;57.57;;;17.93;;
7375;SDS011;3728;42.266;24.944;2022-12-10T05:04:33;71.37;;;22.60;;
7375;SDS011;3728;42.266;24.944;2022-12-10T05:07:01;78.17;;;26.50;;
7375;SDS011;3728;42.266;24.944;2022-12-10T05:09:29;81.23;;;26.13;;
7375;SDS011;3728;42.266;24.944;2022-12-10T05:11:57;68.83;;;18.53;;
7375;SDS011;3728;42.266;24.944;2022-12-10T05:14:25;56.43;;;20.63;;
7375;SDS011;3728;42.266;24.944;2022-12-10T05:16:52;47.80;;;21.47;;
7375;SDS011;3728;42.266;24.944;2022-12-10T05:19:20;63.77;;;20.83;;
7375;SDS011;3728;42.266;24.944;2022-12-10T05:21:49;53.57;;;18.30;;
7375;SDS011;3728;42.266;24.944;2022-12-10T05:24:35;40.80;;;20.47;;
7375;SDS011;3728;42.266;24.944;2022-12-10T05:27:03;42.67;;;19.60;;
7375;SDS011;3728;42.266;24.944;2022-12-10T05:29:31;33.27;;;18.97;;
7375;SDS011;3728;42.266;24.944;2022-12-10T05:32:00;50.83;;;19.53;;
7375;SDS011;3728;42.266;24.944;2022-12-10T05:34:29;31.37;;;18.50;;
7375;SDS011;3728;42.266;24.944;2022-12-10T05:36:57;41.97;;;18.57;;
7375;SDS011;3728;42.266;24.944;2022-12-10T05:39:25;33.27;;;19.30;;
7375;SDS011;3728;42.266;24.944;2022-12-10T05:41:53;33.57;;;16.97;;
7375;SDS011;3728;42.266;24.944;2022-12-10T05:44:21;40.20;;;20.00;;
7375;SDS011;3728;42.266;24.944;2022-12-10T05:46:49;40.03;;;23.17;;
7375;SDS011;3728;42.266;24.944;2022-12-10T05:49:17;35.90;;;20.07;;
7375;SDS011;3728;42.266;24.944;2022-12-10T05:51:44;41.17;;;22.63;;
7375;SDS011;3728;42.266;24.944;2022-12-10T05:54:12;35.20;;;20.93;;
7375;SDS011;3728;42.266;24.944;2022-12-10T05:56:40;39.40;;;21.53;;
7375;SDS011;3728;42.266;24.944;2022-12-10T05:59:08;39.20;;;19.80;;
7375;SDS011;3728;42.266;24.944;2022-12-10T06:01:42;40.63;;;19.57;;
7375;SDS011;3728;42.266;24.944;2022-12-10T06:04:10;31.33;;;18.47;;
7375;SDS011;3728;42.266;24.944;2022-12-10T06:06:39;41.80;;;23.73;;
7375;SDS011;3728;42.266;24.944;2022-12-10T06:09:09;58.43;;;20.10;;
7375;SDS011;3728;42.266;24.944;2022-12-10T06:11:39;50.27;;;21.57;;
7375;SDS011;3728;42.266;24.944;2022-12-10T06:14:08;42.30;;;18.40;;
7375;SDS011;3728;42.266;24.944;2022-12-10T06:16:38;40.53;;;19.40;;
7375;SDS011;3728;42.266;24.944;2022-12-10T06:19:08;34.53;;;18.37;;
7375;SDS011;3728;42.266;24.944;2022-12-10T06:21:36;23.93;;;16.20;;
7375;SDS011;3728;42.266;24.944;2022-12-10T06:24:05;24.27;;;17.27;;
7375;SDS011;3728;42.266;24.944;2022-12-10T06:26:34;24.90;;;17.40;;
7375;SDS011;3728;42.266;24.944;2022-12-10T06:29:02;34.83;;;21.13;;
7375;SDS011;3728;42.266;24.944;2022-12-10T06:31:31;56.93;;;17.13;;
7375;SDS011;3728;42.266;24.944;2022-12-10T06:33:58;34.33;;;20.43;;
7375;SDS011;3728;42.266;24.944;2022-12-10T06:36:26;49.20;;;23.87;;
7375;SDS011;3728;42.266;24.944;2022-12-10T06:38:54;44.17;;;21.43;;
7375;SDS011;3728;42.266;24.944;2022-12-10T06:41:21;30.83;;;19.77;;
7375;SDS011;3728;42.266;24.944;2022-12-10T06:43:49;33.57;;;18.20;;
7375;SDS011;3728;42.266;24.944;2022-12-10T06:46:18;35.00;;;19.03;;
7375;SDS011;3728;42.266;24.944;2022-12-10T06:48:47;30.40;;;19.23;;
7375;SDS011;3728;42.266;24.944;2022-12-10T06:51:15;26.93;;;18.23;;
7375;SDS011;3728;42.266;24.944;2022-12-10T06:53:44;30.37;;;18.47;;
7375;SDS011;3728;42.266;24.944;2022-12-10T06:56:16;33.40;;;16.70;;
7375;SDS011;3728;42.266;24.944;2022-12-10T06:58:45;29.60;;;17.93;;
7375;SDS011;3728;42.266;24.944;2022-12-10T07:01:17;33.70;;;17.73;;
7375;SDS011;3728;42.266;24.944;2022-12-10T07:03:53;38.83;;;21.13;;
7375;SDS011;3728;42.266;24.944;2022-12-10T07:06:23;44.30;;;26.53;;
7375;SDS011;3728;42.266;24.944;2022-12-10T07:08:52;48.13;;;26.57;;
7375;SDS011;3728;42.266;24.944;2022-12-10T07:11:21;42.77;;;27.93;;
7375;SDS011;3728;42.266;24.944;2022-12-10T07:13:51;38.33;;;25.33;;
7375;SDS011;3728;42.266;24.944;2022-12-10T07:16:20;40.87;;;27.33;;
7375;SDS011;3728;42.266;24.944;2022-12-10T07:18:53;34.37;;;22.63;;
7375;SDS011;3728;42.266;24.944;2022-12-10T07:21:27;32.33;;;19.77;;
7375;SDS011;3728;42.266;24.944;2022-12-10T07:24:00;25.70;;;16.37;;
7375;SDS011;3728;42.266;24.944;2022-12-10T07:26:34;23.67;;;15.90;;
7375;SDS011;3728;42.266;24.944;2022-12-10T07:29:04;22.70;;;16.00;;
7375;SDS011;3728;42.266;24.944;2022-12-10T07:31:37;23.93;;;14.77;;
7375;SDS011;3728;42.266;24.944;2022-12-10T07:34:04;19.63;;;12.87;;
7375;SDS011;3728;42.266;24.944;2022-12-10T07:36:32;21.37;;;13.17;;
7375;SDS011;3728;42.266;24.944;2022-12-10T07:39:00;21.83;;;14.83;;
7375;SDS011;3728;42.266;24.944;2022-12-10T07:41:27;25.73;;;14.63;;
7375;SDS011;3728;42.266;24.944;2022-12-10T07:43:57;21.23;;;13.73;;
7375;SDS011;3728;42.266;24.944;2022-12-10T07:46:29;21.07;;;12.60;;
7375;SDS011;3728;42.266;24.944;2022-12-10T07:49:01;45.13;;;28.30;;
7375;SDS011;3728;42.266;24.944;2022-12-10T07:51:30;37.07;;;22.43;;
7375;SDS011;3728;42.266;24.944;2022-12-10T07:53:58;30.37;;;18.50;;
7375;SDS011;3728;42.266;24.944;2022-12-10T07:56:25;66.27;;;30.83;;
7375;SDS011;3728;42.266;24.944;2022-12-10T07:58:56;121.70;;;46.60;;
7375;SDS011;3728;42.266;24.944;2022-12-10T08:01:25;65.83;;;30.37;;
7375;SDS011;3728;42.266;24.944;2022-12-10T08:03:53;25.33;;;15.70;;
7375;SDS011;3728;42.266;24.944;2022-12-10T08:06:25;36.30;;;19.63;;
7375;SDS011;3728;42.266;24.944;2022-12-10T08:08:54;53.07;;;26.77;;
7375;SDS011;3728;42.266;24.944;2022-12-10T08:11:25;64.57;;;31.57;;
7375;SDS011;3728;42.266;24.944;2022-12-10T08:13:53;26.57;;;16.20;;
7375;SDS011;3728;42.266;24.944;2022-12-10T08:16:24;38.80;;;19.87;;
7375;SDS011;3728;42.266;24.944;2022-12-10T08:18:57;36.10;;;20.83;;
7375;SDS011;3728;42.266;24.944;2022-12-10T08:21:28;36.67;;;22.13;;
7375;SDS011;3728;42.266;24.944;2022-12-10T08:23:57;52.67;;;29.43;;
7375;SDS011;3728;42.266;24.944;2022-12-10T08:26:27;57.83;;;35.53;;
7375;SDS011;3728;42.266;24.944;2022-12-10T08:28:57;36.37;;;21.87;;
7375;SDS011;3728;42.266;24.944;2022-12-10T08:31:26;29.63;;;19.00;;
7375;SDS011;3728;42.266;24.944;2022-12-10T08:34:02;28.97;;;18.00;;
7375;SDS011;3728;42.266;24.944;2022-12-10T08:36:31;33.10;;;17.03;;
7375;SDS011;3728;42.266;24.944;2022-12-10T08:38:59;28.73;;;17.03;;
7375;SDS011;3728;42.266;24.944;2022-12-10T08:41:26;26.37;;;19.33;;
7375;SDS011;3728;42.266;24.944;2022-12-10T08:43:54;30.10;;;19.30;;
7375;SDS011;3728;42.266;24.944;2022-12-10T08:46:21;28.23;;;18.20;;
7375;SDS011;3728;42.266;24.944;2022-12-10T08:48:50;30.77;;;19.47;;
7375;SDS011;3728;42.266;24.944;2022-12-10T08:51:18;30.00;;;18.93;;
7375;SDS011;3728;42.266;24.944;2022-12-10T08:53:46;26.30;;;19.03;;
7375;SDS011;3728;42.266;24.944;2022-12-10T08:56:35;32.07;;;20.90;;
7375;SDS011;3728;42.266;24.944;2022-12-10T08:59:03;35.57;;;22.30;;
7375;SDS011;3728;42.266;24.944;2022-12-10T09:01:30;33.20;;;21.83;;
7375;SDS011;3728;42.266;24.944;2022-12-10T09:03:58;27.43;;;20.20;;
7375;SDS011;3728;42.266;24.944;2022-12-10T09:06:28;35.50;;;23.70;;
7375;SDS011;3728;42.266;24.944;2022-12-10T09:08:57;40.90;;;23.00;;
7375;SDS011;3728;42.266;24.944;2022-12-10T09:11:28;40.13;;;24.50;;
7375;SDS011;3728;42.266;24.944;2022-12-10T09:13:59;36.10;;;21.27;;
7375;SDS011;3728;42.266;24.944;2022-12-10T09:16:35;31.83;;;18.37;;
7375;SDS011;3728;42.266;24.944;2022-12-10T09:19:06;25.47;;;18.07;;
7375;SDS011;3728;42.266;24.944;2022-12-10T09:21:35;28.07;;;18.13;;
7375;SDS011;3728;42.266;24.944;2022-12-10T09:24:04;24.77;;;15.90;;
7375;SDS011;3728;42.266;24.944;2022-12-10T09:26:32;26.97;;;18.03;;
7375;SDS011;3728;42.266;24.944;2022-12-10T09:29:00;32.07;;;19.50;;
7375;SDS011;3728;42.266;24.944;2022-12-10T09:31:28;36.40;;;22.10;;
7375;SDS011;3728;42.266;24.944;2022-12-10T09:33:59;35.47;;;20.93;;
7375;SDS011;3728;42.266;24.944;2022-12-10T09:36:28;30.87;;;19.90;;
7375;SDS011;3728;42.266;24.944;2022-12-10T10:09:57;36.37;;;22.60;;
7375;SDS011;3728;42.266;24.944;2022-12-10T10:46:33;30.80;;;20.90;;
7375;SDS011;3728;42.266;24.944;2022-12-10T13:36:00;86.77;;;34.10;;
7375;SDS011;3728;42.266;24.944;2022-12-10T14:37:42;26.90;;;17.80;;
7375;SDS011;3728;42.266;24.944;2022-12-10T15:15:34;112.87;;;63.47;;
7375;SDS011;3728;42.266;24.944;2022-12-10T18:41:00;55.40;;;38.07;;
7375;SDS011;3728;42.266;24.944;2022-12-10T19:42:06;158.50;;;85.77;;
7375;SDS011;3728;42.266;24.944;2022-12-10T21:47:52;54.33;;;33.30;;
7375;SDS011;3728;42.266;24.944;2022-12-10T22:02:39;50.83;;;30.07;;
7375;SDS011;3728;42.266;24.944;2022-12-10T22:29:13;49.17;;;34.63;;
7375;SDS011;3728;42.266;24.944;2022-12-10T22:50:06;58.00;;;36.97;;
7375;SDS011;3728;42.266;24.944;2022-12-10T23:07:15;44.13;;;29.67;;
